Tourist.f.b.terzo — IQAQ — position and weather

sailwx.info

Track history (hours):
 
Tides and Currents Weather Stations Pressure Air Temp Water Temp Dewpoint Dewpoint Depression Visibility Wind Speed Wind Dir Waves Ship Positions

Tourist.f.b.terzo

Last reported at 2015-Mar-28 11:33 UTC. Time now 2015-Mar-29 12:31 UTC.
Position N 40°45' E 013°54'.

; draft 1.8 m.

Type: Ship. MMSI: 247048900.

Date/timePositionNaut miles runAvg speedWind from/ knotsBaromVisibWave heightAir tempDewpointWater temp
2015-Mar-28 11:33N 40°45' E 013°54'0 0.0
2015-Mar-28 10:33N 40°45' E 013°54'7 6.8
2015-Mar-28 09:33N 40°46' E 014°03'4 4.1
2015-Mar-28 08:33N 40°49' E 014°07'5 5.3
2015-Mar-28 07:33N 40°46' E 014°02'6 5.6
2015-Mar-28 06:33N 40°45' E 013°54'8 7.7
2015-Mar-28 05:33N 40°46' E 014°04'2 2.2
2015-Mar-28 04:33N 40°48' E 014°06'7 7.1
2015-Mar-28 03:33N 40°46' E 013°57'1 1.1
2015-Mar-28 02:33N 40°46' E 013°59'6 6.3
2015-Mar-28 01:33N 40°48' E 014°06'2 1.9
2015-Mar-28 00:33N 40°46' E 014°05'8 8.1
2015-Mar-27 23:33N 40°45' E 013°55'0 0.1
2015-Mar-27 19:33N 40°45' E 013°54'0 0.0
2015-Mar-27 18:33N 40°45' E 013°54'0 0.0
2015-Mar-27 17:33N 40°45' E 013°54'0 0.0
2015-Mar-27 16:33N 40°45' E 013°54'0 0.0
2015-Mar-27 15:33N 40°45' E 013°54'0 0.0
2015-Mar-27 14:33N 40°45' E 013°54'0 0.0
2015-Mar-27 13:33N 40°45' E 013°54'0 0.0
2015-Mar-27 12:33N 40°45' E 013°54'0 0.0
2015-Mar-27 11:33N 40°45' E 013°54'3 3.2
2015-Mar-27 10:33N 40°44' E 013°59'8 7.5
2015-Mar-27 09:33N 40°49' E 014°06'0 0.4
2015-Mar-27 08:33N 40°49' E 014°06'7 7.4
2015-Mar-27 07:33N 40°46' E 013°57'1 0.6
2015-Mar-27 06:33N 40°45' E 013°57'6 6.3
2015-Mar-27 05:33N 40°46' E 014°05'2 1.6
2015-Mar-27 04:33N 40°48' E 014°06'8 8.0
2015-Mar-27 03:33N 40°46' E 013°56'4 3.7
2015-Mar-27 02:33N 40°46' E 014°01'6 5.7
2015-Mar-27 01:33N 40°49' E 014°07'5 5.4
2015-Mar-27 00:33N 40°46' E 014°02'5 5.5
2015-Mar-26 23:34N 40°45' E 013°54'0 0.0
2015-Mar-26 17:10N 40°45' E 013°54'0 0.0
2015-Mar-26 16:33N 40°45' E 013°54'0 0.0
2015-Mar-26 15:33N 40°45' E 013°54'0 0.0
2015-Mar-26 14:33N 40°45' E 013°54'0 0.0
2015-Mar-26 13:33N 40°45' E 013°54'0 0.0
2015-Mar-26 12:33N 40°45' E 013°54'0 0.0
2015-Mar-26 11:34N 40°45' E 013°54'2 2.4
2015-Mar-26 10:33N 40°46' E 013°57'8 7.6
2015-Mar-26 09:33N 40°49' E 014°06'4 3.6
2015-Mar-26 08:34N 40°47' E 014°03'3 3.5
2015-Mar-26 07:33N 40°46' E 013°59'1 0.8
2015-Mar-26 06:33N 40°46' E 013°58'7 7.3
2015-Mar-26 05:33N 40°49' E 014°07'3 3.4
2015-Mar-26 04:33N 40°47' E 014°04'8 7.6
2015-Mar-26 03:33N 40°45' E 013°54'5 5.4
2015-Mar-26 02:32N 40°46' E 014°02'5 5.3
2015-Mar-26 01:32N 40°49' E 014°07'4 4.0
2015-Mar-26 00:34N 40°47' E 014°03'7 6.9
2015-Mar-25 23:33N 40°45' E 013°54'0 0.0
2015-Mar-25 19:30N 40°45' E 013°54'0 0.0
2015-Mar-25 18:33N 40°45' E 013°54'0 0.0
2015-Mar-25 17:33N 40°45' E 013°54'0 0.0
2015-Mar-25 15:23N 40°45' E 013°54'0 0.0
2015-Mar-25 12:33N 40°45' E 013°54'0 0.0
2015-Mar-25 11:33N 40°45' E 013°54'0 0.0
2015-Mar-25 10:33N 40°45' E 013°54'0 0.0
2015-Mar-25 09:33N 40°45' E 013°54'0 0.0
2015-Mar-25 08:33N 40°45' E 013°54'4 4.3
2015-Mar-25 07:33N 40°46' E 013°60'2 1.9
2015-Mar-25 06:33N 40°46' E 014°02'5 4.7
2015-Mar-25 05:33N 40°49' E 014°07'5 5.0
2015-Mar-25 04:33N 40°47' E 014°01'6 5.6
2015-Mar-25 03:33N 40°45' E 013°54'6 6.0
2015-Mar-25 02:33N 40°46' E 014°02'5 4.8
2015-Mar-25 01:33N 40°49' E 014°07'5 5.3
2015-Mar-25 00:33N 40°46' E 014°02'6 5.5
2015-Mar-24 23:33N 40°45' E 013°54'0 0.0
2015-Mar-24 18:10N 40°45' E 013°54'0 0.0
2015-Mar-24 17:34N 40°45' E 013°54'0 0.0
2015-Mar-24 16:32N 40°45' E 013°54'0 0.0
2015-Mar-24 15:34N 40°45' E 013°54'0 0.0
2015-Mar-24 14:33N 40°45' E 013°54'0 0.0
2015-Mar-24 13:34N 40°45' E 013°54'0 0.0
2015-Mar-24 12:33N 40°45' E 013°54'0 0.0
2015-Mar-24 11:34N 40°45' E 013°54'0 0.1
2015-Mar-24 10:33N 40°45' E 013°55'9 8.9
2015-Mar-24 09:33N 40°47' E 014°06'3 2.5
2015-Mar-24 08:33N 40°49' E 014°07'4 3.9
2015-Mar-24 07:33N 40°46' E 014°04'7 7.3
2015-Mar-24 06:33N 40°45' E 013°54'8 7.6
2015-Mar-24 05:33N 40°46' E 014°04'2 2.4
2015-Mar-24 04:33N 40°48' E 014°06'8 7.6
2015-Mar-24 03:33N 40°46' E 013°57'2 2.3
2015-Mar-24 02:33N 40°46' E 013°60'6 6.4
2015-Mar-24 01:33N 40°49' E 014°07'5 5.3
2015-Mar-24 00:33N 40°46' E 014°02'5 5.5
2015-Mar-23 23:33N 40°45' E 013°54'0 0.0
2015-Mar-23 17:33N 40°45' E 013°54'0 0.0
2015-Mar-23 16:33N 40°45' E 013°54'0 0.0
2015-Mar-23 15:33N 40°45' E 013°54'0 0.0
2015-Mar-23 14:33N 40°45' E 013°54'0 0.0
2015-Mar-23 13:33N 40°45' E 013°54'0 0.0
2015-Mar-23 12:33N 40°45' E 013°54'0 0.0
2015-Mar-23 11:33N 40°45' E 013°54'0 0.0
2015-Mar-23 10:33N 40°45' E 013°54'3 3.4
2015-Mar-23 09:33N 40°46' E 013°59'7 7.0
2015-Mar-23 08:33N 40°49' E 014°07'5 5.0
2015-Mar-23 07:33N 40°46' E 014°02'6 5.9
2015-Mar-23 06:34N 40°45' E 013°54'8 7.8
2015-Mar-23 05:34N 40°46' E 014°05'2 2.2
2015-Mar-23 04:34N 40°48' E 014°06'8 7.5
2015-Mar-23 03:33N 40°46' E 013°57'2 2.4
2015-Mar-23 02:34N 40°46' E 013°60'6 6.1
2015-Mar-23 01:31N 40°49' E 014°07'5 5.0
2015-Mar-23 00:34N 40°46' E 014°02'5 5.4
2015-Mar-22 23:33N 40°45' E 013°55'1 0.6
2015-Mar-22 22:34N 40°45' E 013°54'0 0.0
2015-Mar-21 11:31N 40°45' E 013°54'0 0.0
2015-Mar-21 10:33N 40°45' E 013°54'8 7.7
2015-Mar-21 09:33N 40°46' E 014°05'4 3.6
2015-Mar-21 08:33N 40°49' E 014°07'3 3.2
2015-Mar-21 07:33N 40°46' E 014°06'7 7.1
2015-Mar-21 06:33N 40°46' E 013°56'4 3.9
2015-Mar-21 05:33N 40°47' E 014°01'5 4.9
2015-Mar-21 04:32N 40°49' E 014°07'7 7.1
2015-Mar-21 03:31N 40°46' E 013°58'2 2.2
2015-Mar-21 02:33N 40°46' E 013°56'8 7.8
2015-Mar-21 01:33N 40°47' E 014°06'1 0.6
2015-Mar-21 00:33N 40°46' E 014°05'8 8.3
2015-Mar-20 23:33N 40°45' E 013°55'0 0.0
2015-Mar-20 17:06N 40°45' E 013°54'0 0.0
2015-Mar-20 16:33N 40°45' E 013°54'0 0.0
2015-Mar-20 15:33N 40°45' E 013°54'0 0.0
2015-Mar-20 14:33N 40°45' E 013°54'0 0.0
2015-Mar-20 13:33N 40°45' E 013°54'0 0.0
2015-Mar-20 12:33N 40°45' E 013°54'0 0.0
2015-Mar-20 11:33N 40°45' E 013°54'5 4.6
2015-Mar-20 10:33N 40°46' E 014°00'6 6.0
2015-Mar-20 09:33N 40°49' E 014°07'4 3.7
2015-Mar-20 08:33N 40°46' E 014°05'6 5.7
2015-Mar-20 07:33N 40°46' E 013°57'1 1.2
2015-Mar-20 06:33N 40°45' E 013°56'8 8.3
2015-Mar-20 05:33N 40°48' E 014°06'2 1.8
2015-Mar-20 04:33N 40°46' E 014°05'8 8.1
2015-Mar-20 03:33N 40°45' E 013°54'5 5.2
2015-Mar-20 02:32N 40°46' E 014°01'5 5.5
2015-Mar-20 01:33N 40°49' E 014°07'5 5.2
2015-Mar-20 00:32N 40°46' E 014°02'5 5.6
2015-Mar-19 23:33N 40°45' E 013°54'0 0.0
2015-Mar-19 19:33N 40°45' E 013°54'0 0.0
2015-Mar-19 18:33N 40°45' E 013°54'0 0.0
2015-Mar-19 17:33N 40°45' E 013°54'0 0.0
2015-Mar-19 16:33N 40°45' E 013°54'0 0.0
2015-Mar-19 15:33N 40°45' E 013°54'0 0.0
2015-Mar-19 14:33N 40°45' E 013°54'2 1.6
2015-Mar-19 13:33N 40°46' E 013°56'8 8.0
2015-Mar-19 12:33N 40°48' E 014°06'4 3.8
2015-Mar-19 11:33N 40°46' E 014°02'6 6.0
2015-Mar-19 10:33N 40°45' E 013°54'8 7.8
2015-Mar-19 09:33N 40°46' E 014°05'2 1.5
2015-Mar-19 08:33N 40°47' E 014°06'8 8.5
2015-Mar-19 07:33N 40°45' E 013°55'2 2.4
2015-Mar-19 06:33N 40°46' E 013°58'6 6.1
2015-Mar-19 05:33N 40°48' E 014°06'1 1.2
2015-Mar-19 04:33N 40°46' E 014°05'8 8.4
2015-Mar-19 03:33N 40°45' E 013°54'5 5.5
2015-Mar-19 02:33N 40°46' E 014°02'5 5.4
2015-Mar-19 01:33N 40°49' E 014°07'5 5.2
2015-Mar-19 00:33N 40°47' E 014°01'5 5.4
2015-Mar-18 23:33N 40°45' E 013°54'0 0.0
2015-Mar-18 22:33N 40°45' E 013°54'0 0.0
2015-Mar-18 21:33N 40°45' E 013°54'0 0.0
2015-Mar-18 20:33N 40°45' E 013°54'0 0.0
2015-Mar-18 19:33N 40°45' E 013°54'0 0.0
2015-Mar-18 18:33N 40°45' E 013°54'0 0.0
2015-Mar-18 17:33N 40°45' E 013°54'0 0.0
2015-Mar-18 16:33N 40°45' E 013°54'0 0.0
2015-Mar-18 15:33N 40°45' E 013°54'0 0.0
2015-Mar-18 14:33N 40°45' E 013°54'0 0.0
2015-Mar-18 13:33N 40°45' E 013°54'0 0.0
2015-Mar-18 12:33N 40°45' E 013°54'  
Track history (hours):
 
Tides and Currents Weather Stations Pressure Air Temp Water Temp Dewpoint Dewpoint Depression Visibility Wind Speed Wind Dir Waves Ship Positions

Tourist.f.b.terzo

Last reported at 2015-Mar-28 11:33 UTC. Time now 2015-Mar-29 12:31 UTC.
Position N 40°45' E 013°54'.

; draft 1.8 m.

Type: Ship. MMSI: 247048900.

Date/timePositionNaut miles runAvg speedWind from/ knotsBaromVisibWave heightAir tempDewpointWater temp
2015-Mar-28 11:33N 40°45' E 013°54'0 0.0
2015-Mar-28 10:33N 40°45' E 013°54'7 6.8
2015-Mar-28 09:33N 40°46' E 014°03'4 4.1
2015-Mar-28 08:33N 40°49' E 014°07'5 5.3
2015-Mar-28 07:33N 40°46' E 014°02'6 5.6
2015-Mar-28 06:33N 40°45' E 013°54'8 7.7
2015-Mar-28 05:33N 40°46' E 014°04'2 2.2
2015-Mar-28 04:33N 40°48' E 014°06'7 7.1
2015-Mar-28 03:33N 40°46' E 013°57'1 1.1
2015-Mar-28 02:33N 40°46' E 013°59'6 6.3
2015-Mar-28 01:33N 40°48' E 014°06'2 1.9
2015-Mar-28 00:33N 40°46' E 014°05'8 8.1
2015-Mar-27 23:33N 40°45' E 013°55'0 0.1
2015-Mar-27 19:33N 40°45' E 013°54'0 0.0
2015-Mar-27 18:33N 40°45' E 013°54'0 0.0
2015-Mar-27 17:33N 40°45' E 013°54'0 0.0
2015-Mar-27 16:33N 40°45' E 013°54'0 0.0
2015-Mar-27 15:33N 40°45' E 013°54'0 0.0
2015-Mar-27 14:33N 40°45' E 013°54'0 0.0
2015-Mar-27 13:33N 40°45' E 013°54'0 0.0
2015-Mar-27 12:33N 40°45' E 013°54'0 0.0
2015-Mar-27 11:33N 40°45' E 013°54'3 3.2
2015-Mar-27 10:33N 40°44' E 013°59'8 7.5
2015-Mar-27 09:33N 40°49' E 014°06'0 0.4
2015-Mar-27 08:33N 40°49' E 014°06'7 7.4
2015-Mar-27 07:33N 40°46' E 013°57'1 0.6
2015-Mar-27 06:33N 40°45' E 013°57'6 6.3
2015-Mar-27 05:33N 40°46' E 014°05'2 1.6
2015-Mar-27 04:33N 40°48' E 014°06'8 8.0
2015-Mar-27 03:33N 40°46' E 013°56'4 3.7
2015-Mar-27 02:33N 40°46' E 014°01'6 5.7
2015-Mar-27 01:33N 40°49' E 014°07'5 5.4
2015-Mar-27 00:33N 40°46' E 014°02'5 5.5
2015-Mar-26 23:34N 40°45' E 013°54'0 0.0
2015-Mar-26 17:10N 40°45' E 013°54'0 0.0
2015-Mar-26 16:33N 40°45' E 013°54'0 0.0
2015-Mar-26 15:33N 40°45' E 013°54'0 0.0
2015-Mar-26 14:33N 40°45' E 013°54'0 0.0
2015-Mar-26 13:33N 40°45' E 013°54'0 0.0
2015-Mar-26 12:33N 40°45' E 013°54'0 0.0
2015-Mar-26 11:34N 40°45' E 013°54'2 2.4
2015-Mar-26 10:33N 40°46' E 013°57'8 7.6
2015-Mar-26 09:33N 40°49' E 014°06'4 3.6
2015-Mar-26 08:34N 40°47' E 014°03'3 3.5
2015-Mar-26 07:33N 40°46' E 013°59'1 0.8
2015-Mar-26 06:33N 40°46' E 013°58'7 7.3
2015-Mar-26 05:33N 40°49' E 014°07'3 3.4
2015-Mar-26 04:33N 40°47' E 014°04'8 7.6
2015-Mar-26 03:33N 40°45' E 013°54'5 5.4
2015-Mar-26 02:32N 40°46' E 014°02'5 5.3
2015-Mar-26 01:32N 40°49' E 014°07'4 4.0
2015-Mar-26 00:34N 40°47' E 014°03'7 6.9
2015-Mar-25 23:33N 40°45' E 013°54'0 0.0
2015-Mar-25 19:30N 40°45' E 013°54'0 0.0
2015-Mar-25 18:33N 40°45' E 013°54'0 0.0
2015-Mar-25 17:33N 40°45' E 013°54'0 0.0
2015-Mar-25 15:23N 40°45' E 013°54'0 0.0
2015-Mar-25 12:33N 40°45' E 013°54'0 0.0
2015-Mar-25 11:33N 40°45' E 013°54'0 0.0
2015-Mar-25 10:33N 40°45' E 013°54'0 0.0
2015-Mar-25 09:33N 40°45' E 013°54'0 0.0
2015-Mar-25 08:33N 40°45' E 013°54'4 4.3
2015-Mar-25 07:33N 40°46' E 013°60'2 1.9
2015-Mar-25 06:33N 40°46' E 014°02'5 4.7
2015-Mar-25 05:33N 40°49' E 014°07'5 5.0
2015-Mar-25 04:33N 40°47' E 014°01'6 5.6
2015-Mar-25 03:33N 40°45' E 013°54'6 6.0
2015-Mar-25 02:33N 40°46' E 014°02'5 4.8
2015-Mar-25 01:33N 40°49' E 014°07'5 5.3
2015-Mar-25 00:33N 40°46' E 014°02'6 5.5
2015-Mar-24 23:33N 40°45' E 013°54'0 0.0
2015-Mar-24 18:10N 40°45' E 013°54'0 0.0
2015-Mar-24 17:34N 40°45' E 013°54'0 0.0
2015-Mar-24 16:32N 40°45' E 013°54'0 0.0
2015-Mar-24 15:34N 40°45' E 013°54'0 0.0
2015-Mar-24 14:33N 40°45' E 013°54'0 0.0
2015-Mar-24 13:34N 40°45' E 013°54'0 0.0
2015-Mar-24 12:33N 40°45' E 013°54'0 0.0
2015-Mar-24 11:34N 40°45' E 013°54'0 0.1
2015-Mar-24 10:33N 40°45' E 013°55'9 8.9
2015-Mar-24 09:33N 40°47' E 014°06'3 2.5
2015-Mar-24 08:33N 40°49' E 014°07'4 3.9
2015-Mar-24 07:33N 40°46' E 014°04'7 7.3
2015-Mar-24 06:33N 40°45' E 013°54'8 7.6
2015-Mar-24 05:33N 40°46' E 014°04'2 2.4
2015-Mar-24 04:33N 40°48' E 014°06'8 7.6
2015-Mar-24 03:33N 40°46' E 013°57'2 2.3
2015-Mar-24 02:33N 40°46' E 013°60'6 6.4
2015-Mar-24 01:33N 40°49' E 014°07'5 5.3
2015-Mar-24 00:33N 40°46' E 014°02'5 5.5
2015-Mar-23 23:33N 40°45' E 013°54'0 0.0
2015-Mar-23 17:33N 40°45' E 013°54'0 0.0
2015-Mar-23 16:33N 40°45' E 013°54'0 0.0
2015-Mar-23 15:33N 40°45' E 013°54'0 0.0
2015-Mar-23 14:33N 40°45' E 013°54'0 0.0
2015-Mar-23 13:33N 40°45' E 013°54'0 0.0
2015-Mar-23 12:33N 40°45' E 013°54'0 0.0
2015-Mar-23 11:33N 40°45' E 013°54'0 0.0
2015-Mar-23 10:33N 40°45' E 013°54'3 3.4
2015-Mar-23 09:33N 40°46' E 013°59'7 7.0
2015-Mar-23 08:33N 40°49' E 014°07'5 5.0
2015-Mar-23 07:33N 40°46' E 014°02'6 5.9
2015-Mar-23 06:34N 40°45' E 013°54'8 7.8
2015-Mar-23 05:34N 40°46' E 014°05'2 2.2
2015-Mar-23 04:34N 40°48' E 014°06'8 7.5
2015-Mar-23 03:33N 40°46' E 013°57'2 2.4
2015-Mar-23 02:34N 40°46' E 013°60'6 6.1
2015-Mar-23 01:31N 40°49' E 014°07'5 5.0
2015-Mar-23 00:34N 40°46' E 014°02'5 5.4
2015-Mar-22 23:33N 40°45' E 013°55'1 0.6
2015-Mar-22 22:34N 40°45' E 013°54'0 0.0
2015-Mar-21 11:31N 40°45' E 013°54'0 0.0
2015-Mar-21 10:33N 40°45' E 013°54'8 7.7
2015-Mar-21 09:33N 40°46' E 014°05'4 3.6
2015-Mar-21 08:33N 40°49' E 014°07'3 3.2
2015-Mar-21 07:33N 40°46' E 014°06'7 7.1
2015-Mar-21 06:33N 40°46' E 013°56'4 3.9
2015-Mar-21 05:33N 40°47' E 014°01'5 4.9
2015-Mar-21 04:32N 40°49' E 014°07'7 7.1
2015-Mar-21 03:31N 40°46' E 013°58'2 2.2
2015-Mar-21 02:33N 40°46' E 013°56'8 7.8
2015-Mar-21 01:33N 40°47' E 014°06'1 0.6
2015-Mar-21 00:33N 40°46' E 014°05'8 8.3
2015-Mar-20 23:33N 40°45' E 013°55'0 0.0
2015-Mar-20 17:06N 40°45' E 013°54'0 0.0
2015-Mar-20 16:33N 40°45' E 013°54'0 0.0
2015-Mar-20 15:33N 40°45' E 013°54'0 0.0
2015-Mar-20 14:33N 40°45' E 013°54'0 0.0
2015-Mar-20 13:33N 40°45' E 013°54'0 0.0
2015-Mar-20 12:33N 40°45' E 013°54'0 0.0
2015-Mar-20 11:33N 40°45' E 013°54'5 4.6
2015-Mar-20 10:33N 40°46' E 014°00'6 6.0
2015-Mar-20 09:33N 40°49' E 014°07'4 3.7
2015-Mar-20 08:33N 40°46' E 014°05'6 5.7
2015-Mar-20 07:33N 40°46' E 013°57'1 1.2
2015-Mar-20 06:33N 40°45' E 013°56'8 8.3
2015-Mar-20 05:33N 40°48' E 014°06'2 1.8
2015-Mar-20 04:33N 40°46' E 014°05'8 8.1
2015-Mar-20 03:33N 40°45' E 013°54'5 5.2
2015-Mar-20 02:32N 40°46' E 014°01'5 5.5
2015-Mar-20 01:33N 40°49' E 014°07'5 5.2
2015-Mar-20 00:32N 40°46' E 014°02'5 5.6
2015-Mar-19 23:33N 40°45' E 013°54'0 0.0
2015-Mar-19 19:33N 40°45' E 013°54'0 0.0
2015-Mar-19 18:33N 40°45' E 013°54'0 0.0
2015-Mar-19 17:33N 40°45' E 013°54'0 0.0
2015-Mar-19 16:33N 40°45' E 013°54'0 0.0
2015-Mar-19 15:33N 40°45' E 013°54'0 0.0
2015-Mar-19 14:33N 40°45' E 013°54'2 1.6
2015-Mar-19 13:33N 40°46' E 013°56'8 8.0
2015-Mar-19 12:33N 40°48' E 014°06'4 3.8
2015-Mar-19 11:33N 40°46' E 014°02'6 6.0
2015-Mar-19 10:33N 40°45' E 013°54'8 7.8
2015-Mar-19 09:33N 40°46' E 014°05'2 1.5
2015-Mar-19 08:33N 40°47' E 014°06'8 8.5
2015-Mar-19 07:33N 40°45' E 013°55'2 2.4
2015-Mar-19 06:33N 40°46' E 013°58'6 6.1
2015-Mar-19 05:33N 40°48' E 014°06'1 1.2
2015-Mar-19 04:33N 40°46' E 014°05'8 8.4
2015-Mar-19 03:33N 40°45' E 013°54'5 5.5
2015-Mar-19 02:33N 40°46' E 014°02'5 5.4
2015-Mar-19 01:33N 40°49' E 014°07'5 5.2
2015-Mar-19 00:33N 40°47' E 014°01'5 5.4
2015-Mar-18 23:33N 40°45' E 013°54'0 0.0
2015-Mar-18 22:33N 40°45' E 013°54'0 0.0
2015-Mar-18 21:33N 40°45' E 013°54'0 0.0
2015-Mar-18 20:33N 40°45' E 013°54'0 0.0
2015-Mar-18 19:33N 40°45' E 013°54'0 0.0
2015-Mar-18 18:33N 40°45' E 013°54'0 0.0
2015-Mar-18 17:33N 40°45' E 013°54'0 0.0
2015-Mar-18 16:33N 40°45' E 013°54'0 0.0
2015-Mar-18 15:33N 40°45' E 013°54'0 0.0
2015-Mar-18 14:33N 40°45' E 013°54'0 0.0
2015-Mar-18 13:33N 40°45' E 013°54'0 0.0
2015-Mar-18 12:33N 40°45' E 013°54'  

Dump ship's entire track history